Time;durP1;ratioP1;P1;durP2;ratioP2;P2;SDS_P1;SDS_P2;PMS_P1;PMS_P2;Temp;Humidity;BMP_temperature;BMP_pressure;BME280_temperature;BME280_humidity;BME280_pressure;Samples;Min_cycle;Max_cycle;Signal;HPM_P1;HPM_P2
2024/02/18 00:00:17;;;;;;;13.82;7.47;;;;;;;;;;4881407;29;20612;-82
2024/02/18 00:02:43;;;;;;;20.55;9.52;;;;;;;;;;4855848;29;20056;-80
2024/02/18 00:05:12;;;;;;;17.92;8.55;;;;;;;;;;4850934;29;20072;-82
2024/02/18 00:07:38;;;;;;;16.05;7.75;;;;;;;;;;4858321;29;20068;-82
2024/02/18 00:10:04;;;;;;;13.13;6.97;;;;;;;;;;4841842;29;20048;-82
2024/02/18 00:12:29;;;;;;;15.45;7.25;;;;;;;;;;4870177;29;20092;-82
2024/02/18 00:14:55;;;;;;;19.92;7.95;;;;;;;;;;4857779;29;20032;-81
2024/02/18 00:17:20;;;;;;;13.95;7.47;;;;;;;;;;4859381;29;20100;-80
2024/02/18 00:19:46;;;;;;;12.65;6.97;;;;;;;;;;4872076;29;20033;-83
2024/02/18 00:22:12;;;;;;;12.18;6.57;;;;;;;;;;4893403;29;20167;-82
2024/02/18 00:24:40;;;;;;;16.52;6.95;;;;;;;;;;4855945;29;20037;-81
2024/02/18 00:27:05;;;;;;;13.30;6.30;;;;;;;;;;4855562;29;20071;-81
2024/02/18 00:29:31;;;;;;;20.10;7.53;;;;;;;;;;4867200;29;20044;-80
2024/02/18 00:31:57;;;;;;;12.75;6.53;;;;;;;;;;4870239;29;20041;-81
2024/02/18 00:34:23;;;;;;;13.25;6.80;;;;;;;;;;4877262;29;20033;-81
2024/02/18 00:36:48;;;;;;;13.77;7.35;;;;;;;;;;4859444;29;20084;-81
2024/02/18 00:39:15;;;;;;;14.02;6.13;;;;;;;;;;4865804;29;20033;-80
2024/02/18 00:41:41;;;;;;;12.15;6.18;;;;;;;;;;4865714;29;20041;-80
2024/02/18 00:44:07;;;;;;;12.20;6.57;;;;;;;;;;4881080;29;20053;-81
2024/02/18 00:46:32;;;;;;;13.73;7.88;;;;;;;;;;4865903;29;20096;-81
2024/02/18 00:48:58;;;;;;;12.80;6.72;;;;;;;;;;4865409;29;20080;-81
2024/02/18 00:51:23;;;;;;;13.10;6.35;;;;;;;;;;4865085;29;20124;-82
2024/02/18 00:53:49;;;;;;;14.63;6.85;;;;;;;;;;4848674;29;20493;-81
2024/02/18 00:56:14;;;;;;;13.15;7.03;;;;;;;;;;4863558;29;20124;-82
2024/02/18 00:58:40;;;;;;;18.27;7.78;;;;;;;;;;4880184;29;20041;-83
2024/02/18 01:01:05;;;;;;;13.48;7.55;;;;;;;;;;4848768;29;20033;-82
2024/02/18 01:03:32;;;;;;;13.73;6.30;;;;;;;;;;4863105;29;20033;-80
2024/02/18 01:05:57;;;;;;;13.48;6.85;;;;;;;;;;4848018;29;20061;-81
2024/02/18 01:08:23;;;;;;;12.50;6.60;;;;;;;;;;4863542;29;20085;-80
2024/02/18 01:10:48;;;;;;;12.02;7.00;;;;;;;;;;4848213;29;20090;-81
2024/02/18 01:13:14;;;;;;;13.07;6.80;;;;;;;;;;4863469;29;20386;-82
2024/02/18 01:15:39;;;;;;;12.82;6.90;;;;;;;;;;4847608;29;20056;-81
2024/02/18 01:18:05;;;;;;;15.82;7.85;;;;;;;;;;4863117;29;20056;-81
2024/02/18 01:20:31;;;;;;;14.55;8.13;;;;;;;;;;4863576;29;20037;-82
2024/02/18 01:22:56;;;;;;;12.70;7.40;;;;;;;;;;4878659;29;20033;-80
2024/02/18 01:25:22;;;;;;;12.40;6.72;;;;;;;;;;4865275;29;20401;-80
2024/02/18 01:27:50;;;;;;;12.23;6.75;;;;;;;;;;4849216;29;20044;-81
2024/02/18 01:30:19;;;;;;;12.18;7.55;;;;;;;;;;4849961;29;20166;-81
2024/02/18 01:32:45;;;;;;;12.95;6.90;;;;;;;;;;4895580;29;20029;-81
2024/02/18 01:35:11;;;;;;;14.68;7.05;;;;;;;;;;4867688;29;20029;-81
2024/02/18 01:37:36;;;;;;;12.27;6.70;;;;;;;;;;4852155;29;20044;-80
2024/02/18 01:40:02;;;;;;;11.18;6.50;;;;;;;;;;4867488;29;20033;-81
2024/02/18 01:42:27;;;;;;;13.38;7.47;;;;;;;;;;4898998;29;20453;-81
2024/02/18 01:44:53;;;;;;;13.50;6.80;;;;;;;;;;4867585;29;20033;-81
2024/02/18 01:47:19;;;;;;;14.20;7.00;;;;;;;;;;4866981;29;20523;-80
2024/02/18 01:49:45;;;;;;;13.00;6.70;;;;;;;;;;4882163;29;20064;-81
2024/02/18 01:52:11;;;;;;;11.55;6.50;;;;;;;;;;4867561;29;20531;-81
2024/02/18 01:54:37;;;;;;;11.45;7.15;;;;;;;;;;4866625;29;20079;-81
2024/02/18 01:57:05;;;;;;;10.68;6.88;;;;;;;;;;4881772;29;20062;-82
2024/02/18 01:59:31;;;;;;;9.95;6.13;;;;;;;;;;4867302;29;20389;-80
2024/02/18 02:01:57;;;;;;;9.63;5.80;;;;;;;;;;4856079;29;20033;-80
2024/02/18 02:04:26;;;;;;;14.05;7.18;;;;;;;;;;4867754;29;20033;-80
2024/02/18 02:06:53;;;;;;;13.15;6.47;;;;;;;;;;4868657;29;20037;-81
2024/02/18 02:09:19;;;;;;;12.35;7.13;;;;;;;;;;4868528;29;20041;-80
2024/02/18 02:11:45;;;;;;;14.45;7.43;;;;;;;;;;4852251;29;20033;-81
2024/02/18 02:14:12;;;;;;;15.70;9.52;;;;;;;;;;4869254;29;20064;-81
2024/02/18 02:16:38;;;;;;;16.73;7.93;;;;;;;;;;4852364;29;20034;-80
2024/02/18 02:19:03;;;;;;;14.48;7.82;;;;;;;;;;4900961;29;20033;-81
2024/02/18 02:21:29;;;;;;;13.82;7.57;;;;;;;;;;4853924;29;20045;-81
2024/02/18 02:23:55;;;;;;;15.45;7.55;;;;;;;;;;4868601;29;20029;-81
2024/02/18 02:26:21;;;;;;;12.02;6.90;;;;;;;;;;4867316;29;20507;-81
2024/02/18 02:28:49;;;;;;;13.13;7.75;;;;;;;;;;4869129;29;20089;-80
2024/02/18 02:31:15;;;;;;;12.30;6.70;;;;;;;;;;4848725;29;20402;-82
2024/02/18 02:33:43;;;;;;;13.98;7.15;;;;;;;;;;4863606;29;20502;-80
2024/02/18 02:36:09;;;;;;;12.43;6.45;;;;;;;;;;4862570;29;20034;-81
2024/02/18 02:38:36;;;;;;;14.63;7.05;;;;;;;;;;4862867;29;20033;-80
2024/02/18 02:41:03;;;;;;;12.00;7.05;;;;;;;;;;4862968;29;20425;-80
2024/02/18 02:43:28;;;;;;;13.18;6.80;;;;;;;;;;4863182;29;20066;-80
2024/02/18 02:45:54;;;;;;;12.35;7.85;;;;;;;;;;4878942;29;20041;-80
2024/02/18 02:48:20;;;;;;;14.20;7.40;;;;;;;;;;4864323;29;20049;-80
2024/02/18 02:50:45;;;;;;;13.75;6.95;;;;;;;;;;4863452;29;20049;-81
2024/02/18 02:53:12;;;;;;;15.13;7.70;;;;;;;;;;4863882;29;20041;-82
2024/02/18 02:55:38;;;;;;;11.85;7.22;;;;;;;;;;4878853;29;20494;-82
2024/02/18 02:58:03;;;;;;;12.80;7.03;;;;;;;;;;4863234;29;20089;-82
2024/02/18 03:00:31;;;;;;;15.90;7.78;;;;;;;;;;4865771;29;20033;-81
2024/02/18 03:02:56;;;;;;;12.93;6.80;;;;;;;;;;4866194;29;20040;-81
2024/02/18 03:05:22;;;;;;;13.48;7.50;;;;;;;;;;4866496;29;20033;-81
2024/02/18 03:07:47;;;;;;;12.65;7.63;;;;;;;;;;4866219;29;20040;-82
2024/02/18 03:10:13;;;;;;;14.40;7.97;;;;;;;;;;4866123;29;20033;-82
2024/02/18 03:12:39;;;;;;;14.77;7.32;;;;;;;;;;4865690;29;20505;-81
2024/02/18 03:15:05;;;;;;;12.93;7.45;;;;;;;;;;4849759;29;20037;-80
2024/02/18 03:17:30;;;;;;;16.42;7.95;;;;;;;;;;4865430;29;20390;-81
2024/02/18 03:19:56;;;;;;;12.98;7.35;;;;;;;;;;4851821;29;20037;-82
2024/02/18 03:22:23;;;;;;;13.45;7.45;;;;;;;;;;4865356;29;20489;-80
2024/02/18 03:24:51;;;;;;;15.02;8.20;;;;;;;;;;4864908;29;20512;-81
2024/02/18 03:27:17;;;;;;;14.77;7.70;;;;;;;;;;4864916;29;20044;-82
2024/02/18 03:29:46;;;;;;;15.80;8.70;;;;;;;;;;4850462;29;20048;-82
2024/02/18 03:32:13;;;;;;;13.15;7.32;;;;;;;;;;4850099;29;20401;-82
2024/02/18 03:34:40;;;;;;;14.18;7.63;;;;;;;;;;4864544;29;20041;-82
2024/02/18 03:37:05;;;;;;;17.80;8.00;;;;;;;;;;4865612;29;20040;-81
2024/02/18 03:39:31;;;;;;;17.60;8.40;;;;;;;;;;4849065;29;20093;-81
2024/02/18 03:41:56;;;;;;;17.15;8.88;;;;;;;;;;4862644;29;20045;-81
2024/02/18 03:44:22;;;;;;;12.27;7.63;;;;;;;;;;4861279;29;20037;-82
2024/02/18 03:46:49;;;;;;;14.18;7.07;;;;;;;;;;4861765;29;20068;-81
2024/02/18 03:49:14;;;;;;;13.32;7.07;;;;;;;;;;4861786;29;20041;-81
2024/02/18 03:51:40;;;;;;;16.83;7.50;;;;;;;;;;4878707;29;20045;-81
2024/02/18 03:54:06;;;;;;;11.80;7.13;;;;;;;;;;4849225;29;20049;-81
2024/02/18 03:56:34;;;;;;;15.38;8.27;;;;;;;;;;4864909;29;20048;-81
2024/02/18 03:59:00;;;;;;;11.95;6.72;;;;;;;;;;4868345;29;20049;-81
2024/02/18 04:01:26;;;;;;;23.08;11.55;;;;;;;;;;4859261;29;20037;-82
2024/02/18 04:03:51;;;;;;;23.88;11.55;;;;;;;;;;4880904;29;20105;-80
2024/02/18 04:06:17;;;;;;;17.67;7.75;;;;;;;;;;4863058;29;20049;-82
2024/02/18 04:08:42;;;;;;;10.02;6.50;;;;;;;;;;4862951;29;20034;-81
2024/02/18 04:11:09;;;;;;;11.40;6.55;;;;;;;;;;4877778;29;20096;-81
2024/02/18 04:13:35;;;;;;;11.50;6.68;;;;;;;;;;4876250;29;20081;-80
2024/02/18 04:16:00;;;;;;;14.18;6.50;;;;;;;;;;4860871;29;20045;-80
2024/02/18 04:18:26;;;;;;;11.80;6.53;;;;;;;;;;4861329;29;20136;-80
2024/02/18 04:20:52;;;;;;;12.57;6.47;;;;;;;;;;4845848;29;20037;-81
2024/02/18 04:23:17;;;;;;;12.30;6.53;;;;;;;;;;4846603;29;20071;-80
2024/02/18 04:25:43;;;;;;;10.30;6.00;;;;;;;;;;4861303;29;20033;-80
2024/02/18 04:28:08;;;;;;;10.32;6.18;;;;;;;;;;4847249;29;20046;-80
2024/02/18 04:30:34;;;;;;;13.35;7.25;;;;;;;;;;4862924;29;20120;-80
2024/02/18 04:33:00;;;;;;;17.48;7.35;;;;;;;;;;4849787;29;20038;-80
2024/02/18 04:35:25;;;;;;;12.52;6.57;;;;;;;;;;4864087;29;20526;-80
2024/02/18 04:37:52;;;;;;;16.13;7.38;;;;;;;;;;4849432;29;20041;-82
2024/02/18 04:40:17;;;;;;;12.93;6.90;;;;;;;;;;4866509;29;20030;-82
2024/02/18 04:42:43;;;;;;;14.30;7.57;;;;;;;;;;4865849;29;20034;-81
2024/02/18 04:45:09;;;;;;;12.10;7.18;;;;;;;;;;4886008;29;20390;-81
2024/02/18 04:47:35;;;;;;;14.43;6.82;;;;;;;;;;4868211;29;20493;-81
2024/02/18 04:50:03;;;;;;;13.55;7.30;;;;;;;;;;4865996;29;20064;-80
2024/02/18 04:52:30;;;;;;;11.18;6.78;;;;;;;;;;4866414;29;20037;-80
2024/02/18 04:54:56;;;;;;;12.02;7.32;;;;;;;;;;4867914;29;20043;-80
2024/02/18 04:57:21;;;;;;;13.80;6.93;;;;;;;;;;4854452;29;20481;-81
2024/02/18 04:59:47;;;;;;;14.10;6.57;;;;;;;;;;4856003;29;20040;-80
2024/02/18 05:02:12;;;;;;;12.20;6.65;;;;;;;;;;4842265;29;20040;-82
2024/02/18 05:04:38;;;;;;;14.05;6.97;;;;;;;;;;4872942;29;20033;-80
2024/02/18 05:07:04;;;;;;;14.48;7.38;;;;;;;;;;4864857;29;20128;-81
2024/02/18 05:09:30;;;;;;;13.95;7.20;;;;;;;;;;4866988;29;20093;-82
2024/02/18 05:11:55;;;;;;;13.32;7.10;;;;;;;;;;4865196;29;20037;-81
2024/02/18 05:14:21;;;;;;;16.27;7.53;;;;;;;;;;4879301;29;20048;-80
2024/02/18 05:16:47;;;;;;;13.60;7.75;;;;;;;;;;4848714;29;20085;-81
2024/02/18 05:19:12;;;;;;;13.85;7.13;;;;;;;;;;4863810;29;20041;-80
2024/02/18 05:21:39;;;;;;;12.80;6.47;;;;;;;;;;4863604;29;20116;-81
2024/02/18 05:24:05;;;;;;;15.40;7.55;;;;;;;;;;4863228;29;20045;-81
2024/02/18 05:26:30;;;;;;;16.65;7.90;;;;;;;;;;4847767;29;20060;-81
2024/02/18 05:28:56;;;;;;;17.63;9.10;;;;;;;;;;4863522;29;20044;-82
2024/02/18 05:31:22;;;;;;;17.70;9.35;;;;;;;;;;4863525;29;20132;-82
2024/02/18 05:33:49;;;;;;;20.13;10.15;;;;;;;;;;4879095;29;20037;-80
2024/02/18 05:36:14;;;;;;;14.10;7.78;;;;;;;;;;4868533;29;20125;-80
2024/02/18 05:38:41;;;;;;;18.45;8.02;;;;;;;;;;4901426;29;20033;-81
2024/02/18 05:41:06;;;;;;;14.77;8.15;;;;;;;;;;4871437;29;20043;-82
2024/02/18 05:43:32;;;;;;;15.32;8.40;;;;;;;;;;4869555;29;20061;-81
2024/02/18 05:45:57;;;;;;;13.35;6.90;;;;;;;;;;4861326;29;20135;-82
2024/02/18 05:48:23;;;;;;;14.38;7.47;;;;;;;;;;4882085;29;20041;-80
2024/02/18 05:50:49;;;;;;;13.50;7.82;;;;;;;;;;4869512;29;20113;-81
2024/02/18 05:53:14;;;;;;;13.23;7.72;;;;;;;;;;4849181;29;20034;-81
2024/02/18 05:55:40;;;;;;;18.70;7.95;;;;;;;;;;4846826;29;20085;-81
2024/02/18 05:58:06;;;;;;;12.50;6.95;;;;;;;;;;4848599;29;20132;-82
2024/02/18 06:00:32;;;;;;;18.42;8.02;;;;;;;;;;4862746;29;20033;-82
2024/02/18 06:02:57;;;;;;;13.68;7.85;;;;;;;;;;4845893;29;20038;-80
2024/02/18 06:05:23;;;;;;;14.00;8.15;;;;;;;;;;4875815;29;20037;-81
2024/02/18 06:07:49;;;;;;;13.10;7.43;;;;;;;;;;4875918;29;20038;-80
2024/02/18 06:10:14;;;;;;;16.92;7.93;;;;;;;;;;4859703;29;20040;-80
2024/02/18 06:12:43;;;;;;;14.65;7.70;;;;;;;;;;4877252;29;20046;-81
2024/02/18 06:15:09;;;;;;;15.82;8.57;;;;;;;;;;4877973;29;20415;-81
2024/02/18 06:17:35;;;;;;;14.57;7.95;;;;;;;;;;4862593;29;20037;-81
2024/02/18 06:20:00;;;;;;;13.73;7.43;;;;;;;;;;4847518;29;20121;-80
2024/02/18 06:22:26;;;;;;;13.15;6.93;;;;;;;;;;4863628;29;20045;-81
2024/02/18 06:24:51;;;;;;;12.77;7.18;;;;;;;;;;4863022;29;20040;-80
2024/02/18 06:27:17;;;;;;;14.38;8.18;;;;;;;;;;4863288;29;20038;-81
2024/02/18 06:29:44;;;;;;;17.48;8.43;;;;;;;;;;4863708;29;20037;-81
2024/02/18 06:32:10;;;;;;;14.23;7.63;;;;;;;;;;4848526;29;20448;-80
2024/02/18 06:34:35;;;;;;;15.32;7.90;;;;;;;;;;4864238;29;20037;-81
2024/02/18 06:37:01;;;;;;;14.45;8.52;;;;;;;;;;4847082;29;20058;-80
2024/02/18 06:39:27;;;;;;;15.27;8.65;;;;;;;;;;4862540;29;20089;-81
2024/02/18 06:41:53;;;;;;;15.02;8.20;;;;;;;;;;4862085;29;20128;-80
2024/02/18 06:44:19;;;;;;;15.75;8.38;;;;;;;;;;4864859;29;20029;-80
2024/02/18 06:46:45;;;;;;;14.63;7.90;;;;;;;;;;4851158;29;20047;-79
2024/02/18 06:49:10;;;;;;;15.05;8.10;;;;;;;;;;4866459;29;20577;-81
2024/02/18 06:51:36;;;;;;;14.30;8.65;;;;;;;;;;4865739;29;20029;-81
2024/02/18 06:54:01;;;;;;;13.48;7.90;;;;;;;;;;4850076;29;20040;-81
2024/02/18 06:56:27;;;;;;;13.52;8.25;;;;;;;;;;4865333;29;20057;-81
2024/02/18 06:58:53;;;;;;;15.45;8.70;;;;;;;;;;4866326;29;20037;-80
2024/02/18 07:01:19;;;;;;;14.80;8.50;;;;;;;;;;4847790;29;20409;-81
2024/02/18 07:03:45;;;;;;;14.52;7.88;;;;;;;;;;4847619;29;20044;-80
2024/02/18 07:06:11;;;;;;;14.35;7.97;;;;;;;;;;4872846;29;20033;-82
2024/02/18 07:08:37;;;;;;;18.05;9.13;;;;;;;;;;4857678;29;20112;-81
2024/02/18 07:11:03;;;;;;;16.30;9.32;;;;;;;;;;4859734;29;20041;-81
2024/02/18 07:13:29;;;;;;;15.52;8.00;;;;;;;;;;4861309;29;20041;-82
2024/02/18 07:15:56;;;;;;;12.45;7.57;;;;;;;;;;4878065;29;20033;-82
2024/02/18 07:18:23;;;;;;;15.95;7.90;;;;;;;;;;4883774;29;20030;-82
2024/02/18 07:20:52;;;;;;;16.73;8.57;;;;;;;;;;4865201;29;20041;-82
2024/02/18 07:23:18;;;;;;;13.73;7.93;;;;;;;;;;4880034;29;20034;-81
2024/02/18 07:25:45;;;;;;;14.63;7.97;;;;;;;;;;4877171;29;20097;-82
2024/02/18 07:28:10;;;;;;;15.68;8.95;;;;;;;;;;4894877;29;20048;-82
2024/02/18 07:30:36;;;;;;;18.88;9.00;;;;;;;;;;4880836;29;20041;-82
2024/02/18 07:33:02;;;;;;;18.08;9.43;;;;;;;;;;4882448;29;20037;-81
2024/02/18 07:35:29;;;;;;;18.00;8.95;;;;;;;;;;4896292;29;20040;-83
2024/02/18 07:37:56;;;;;;;16.45;9.10;;;;;;;;;;4865391;29;20160;-82
2024/02/18 07:40:23;;;;;;;19.85;9.52;;;;;;;;;;4902696;29;20033;-82
2024/02/18 07:42:51;;;;;;;18.65;9.70;;;;;;;;;;4864582;29;20033;-83
2024/02/18 07:45:18;;;;;;;18.63;10.18;;;;;;;;;;4865317;29;20041;-81
2024/02/18 07:47:43;;;;;;;19.10;9.32;;;;;;;;;;4877274;29;20069;-82
2024/02/18 07:50:10;;;;;;;18.45;9.80;;;;;;;;;;4892018;29;20056;-81
2024/02/18 07:52:35;;;;;;;17.85;8.88;;;;;;;;;;4896725;29;20029;-82
2024/02/18 07:55:02;;;;;;;21.83;9.38;;;;;;;;;;4899410;29;20101;-82
2024/02/18 07:57:28;;;;;;;18.10;9.05;;;;;;;;;;4898903;29;20045;-81
2024/02/18 07:59:54;;;;;;;18.13;8.95;;;;;;;;;;4900616;29;20064;-83
2024/02/18 08:02:21;;;;;;;18.17;9.40;;;;;;;;;;4881861;29;20025;-82
2024/02/18 08:04:47;;;;;;;18.45;9.02;;;;;;;;;;4867301;29;20041;-82
2024/02/18 08:07:12;;;;;;;20.67;9.15;;;;;;;;;;4866398;29;20530;-81
2024/02/18 08:09:38;;;;;;;18.27;9.63;;;;;;;;;;4853608;29;20052;-81
2024/02/18 08:12:04;;;;;;;15.80;8.77;;;;;;;;;;4860783;29;20061;-81
2024/02/18 08:14:30;;;;;;;18.02;9.57;;;;;;;;;;4876249;29;20044;-82
2024/02/18 08:16:57;;;;;;;17.00;9.82;;;;;;;;;;4877328;29;20044;-81
2024/02/18 08:19:23;;;;;;;19.00;8.88;;;;;;;;;;4857858;29;20048;-82
2024/02/18 08:21:49;;;;;;;16.23;9.40;;;;;;;;;;4891218;29;20085;-82
2024/02/18 08:24:14;;;;;;;19.23;9.32;;;;;;;;;;4877205;29;20033;-82
2024/02/18 08:26:41;;;;;;;18.17;9.85;;;;;;;;;;4875688;29;20117;-82
2024/02/18 08:29:07;;;;;;;17.65;9.85;;;;;;;;;;4857929;29;20025;-82
2024/02/18 08:31:33;;;;;;;21.42;9.60;;;;;;;;;;4852922;29;20045;-82
2024/02/18 08:34:01;;;;;;;18.02;9.48;;;;;;;;;;4882583;29;20069;-81
2024/02/18 08:37:01;;;;;;;17.20;9.52;;;;;;;;;;4886260;29;20037;-82
2024/02/18 08:39:29;;;;;;;18.20;8.93;;;;;;;;;;4880055;29;20064;-82
2024/02/18 08:42:05;;;;;;;15.25;8.52;;;;;;;;;;4894077;29;20441;-82
2024/02/18 08:44:57;;;;;;;17.30;9.57;;;;;;;;;;4913389;23;20063;-82
2024/02/18 08:47:31;;;;;;;17.15;8.40;;;;;;;;;;4917948;29;20061;-83
2024/02/18 08:50:03;;;;;;;19.13;9.20;;;;;;;;;;4919911;29;20039;-82
2024/02/18 08:52:43;;;;;;;14.15;8.63;;;;;;;;;;4933636;29;20040;-82
2024/02/18 08:55:15;;;;;;;18.58;8.77;;;;;;;;;;4897822;29;20028;-82
2024/02/18 08:57:48;;;;;;;13.02;7.60;;;;;;;;;;4881067;29;20060;-82
2024/02/18 09:00:31;;;;;;;15.93;9.52;;;;;;;;;;4905907;29;20039;-82
2024/02/18 09:03:03;;;;;;;18.90;10.45;;;;;;;;;;4903371;29;20029;-83
2024/02/18 09:05:31;;;;;;;16.60;9.75;;;;;;;;;;4892391;29;20029;-81
2024/02/18 09:07:56;;;;;;;15.75;8.75;;;;;;;;;;4874326;29;20036;-81
2024/02/18 09:10:22;;;;;;;15.82;8.38;;;;;;;;;;4889526;29;20032;-82
2024/02/18 09:12:48;;;;;;;18.30;9.60;;;;;;;;;;4890599;29;20048;-81
2024/02/18 09:15:14;;;;;;;18.88;8.93;;;;;;;;;;4879454;29;20021;-82
2024/02/18 09:17:39;;;;;;;15.20;7.90;;;;;;;;;;4877351;29;20052;-82
2024/02/18 09:20:05;;;;;;;16.95;8.25;;;;;;;;;;4889351;29;20131;-82
2024/02/18 09:22:31;;;;;;;16.13;8.43;;;;;;;;;;4897241;29;20072;-81
2024/02/18 09:24:57;;;;;;;14.27;7.72;;;;;;;;;;4884477;29;20108;-82
2024/02/18 09:27:23;;;;;;;17.85;8.80;;;;;;;;;;4877435;29;20044;-80
2024/02/18 09:29:48;;;;;;;16.73;8.68;;;;;;;;;;4888436;29;20043;-80
2024/02/18 09:32:14;;;;;;;16.77;8.45;;;;;;;;;;4885844;29;20032;-81
2024/02/18 09:34:40;;;;;;;16.13;8.40;;;;;;;;;;4874963;29;20036;-81
2024/02/18 09:37:06;;;;;;;16.45;7.38;;;;;;;;;;4873465;29;20036;-81
2024/02/18 09:39:35;;;;;;;15.15;7.78;;;;;;;;;;4861007;29;20040;-81
2024/02/18 09:42:08;;;;;;;15.07;8.23;;;;;;;;;;4887515;29;20040;-82
2024/02/18 09:44:35;;;;;;;15.50;7.28;;;;;;;;;;4874969;29;20032;-81
2024/02/18 09:47:02;;;;;;;12.82;7.80;;;;;;;;;;4868630;29;20041;-82
2024/02/18 09:49:29;;;;;;;15.55;7.65;;;;;;;;;;4892047;29;20036;-81
2024/02/18 09:51:55;;;;;;;14.73;8.02;;;;;;;;;;4905633;29;20104;-81
2024/02/18 09:54:24;;;;;;;17.55;7.70;;;;;;;;;;4867132;29;20115;-82
2024/02/18 09:56:50;;;;;;;15.90;7.70;;;;;;;;;;4891387;29;20041;-80
2024/02/18 09:59:16;;;;;;;13.23;7.88;;;;;;;;;;4860369;29;20041;-81
2024/02/18 10:01:43;;;;;;;20.45;8.70;;;;;;;;;;4903827;29;20059;-81
2024/02/18 10:04:10;;;;;;;17.13;8.05;;;;;;;;;;4912193;29;20096;-82
2024/02/18 10:06:36;;;;;;;14.38;8.32;;;;;;;;;;4884124;29;20052;-82
2024/02/18 10:09:03;;;;;;;13.65;7.57;;;;;;;;;;4890353;29;20051;-82
2024/02/18 10:11:32;;;;;;;16.75;8.02;;;;;;;;;;4899270;29;20036;-82
2024/02/18 10:14:00;;;;;;;16.65;7.88;;;;;;;;;;4884352;29;20527;-80
2024/02/18 10:16:26;;;;;;;14.73;7.78;;;;;;;;;;4877214;29;20532;-81
2024/02/18 10:18:55;;;;;;;16.63;7.95;;;;;;;;;;4895194;29;20025;-81
2024/02/18 10:21:21;;;;;;;15.90;8.07;;;;;;;;;;4903456;29;20537;-80
2024/02/18 10:23:46;;;;;;;12.65;7.38;;;;;;;;;;4905637;29;20036;-82
2024/02/18 10:26:13;;;;;;;14.35;8.27;;;;;;;;;;4879495;29;20052;-80
2024/02/18 10:28:39;;;;;;;15.52;7.47;;;;;;;;;;4895557;29;20481;-81
2024/02/18 10:31:07;;;;;;;13.57;7.20;;;;;;;;;;4894634;29;20047;-81
2024/02/18 10:33:36;;;;;;;12.77;7.78;;;;;;;;;;4905581;29;20040;-81
2024/02/18 10:36:07;;;;;;;20.60;8.13;;;;;;;;;;4910470;29;20036;-81
2024/02/18 10:38:40;;;;;;;16.05;7.78;;;;;;;;;;4914256;29;20075;-81
2024/02/18 10:41:09;;;;;;;12.57;7.47;;;;;;;;;;4878234;29;20045;-82
2024/02/18 10:43:41;;;;;;;17.50;7.55;;;;;;;;;;4879837;29;20033;-82
2024/02/18 10:46:08;;;;;;;16.25;6.93;;;;;;;;;;4904013;29;20044;-81
2024/02/18 10:48:36;;;;;;;12.65;7.07;;;;;;;;;;4892054;29;20031;-82
2024/02/18 10:51:03;;;;;;;11.43;7.17;;;;;;;;;;4903938;29;20040;-82
2024/02/18 10:53:34;;;;;;;13.25;7.10;;;;;;;;;;4892913;29;20288;-82
2024/02/18 10:56:22;;;;;;;13.73;6.50;;;;;;;;;;4911251;29;20172;-81
2024/02/18 10:58:59;;;;;;;13.15;6.38;;;;;;;;;;4878563;29;20113;-81
2024/02/18 11:01:28;;;;;;;10.70;6.13;;;;;;;;;;4894963;29;20037;-81
2024/02/18 11:03:59;;;;;;;12.88;6.38;;;;;;;;;;4887171;29;20036;-82
2024/02/18 11:06:26;;;;;;;12.68;6.68;;;;;;;;;;4888738;29;20036;-83
2024/02/18 11:08:52;;;;;;;9.38;5.63;;;;;;;;;;4892618;29;20108;-82
2024/02/18 11:11:19;;;;;;;13.32;5.72;;;;;;;;;;4884769;29;20052;-82
2024/02/18 11:13:50;;;;;;;9.65;4.90;;;;;;;;;;4902782;29;20032;-82
2024/02/18 11:16:16;;;;;;;;;;;;;;;;;;4918914;29;20041;-82
2024/02/18 11:18:45;;;;;;;13.93;5.63;;;;;;;;;;4888122;29;19907;-81
2024/02/18 11:21:14;;;;;;;9.75;5.72;;;;;;;;;;4906599;29;20040;-83
2024/02/18 11:23:53;;;;;;;10.68;5.70;;;;;;;;;;4892815;29;20055;-83
2024/02/18 11:26:22;;;;;;;13.07;5.45;;;;;;;;;;4934774;29;20040;-83
2024/02/18 11:28:49;;;;;;;10.32;5.10;;;;;;;;;;4904694;29;20511;-82
2024/02/18 11:31:22;;;;;;;9.98;5.65;;;;;;;;;;4893823;29;20033;-82
2024/02/18 11:33:48;;;;;;;11.02;5.78;;;;;;;;;;4896799;29;20061;-82
2024/02/18 11:36:15;;;;;;;11.00;5.10;;;;;;;;;;4891951;29;20049;-82
2024/02/18 11:38:57;;;;;;;10.65;6.05;;;;;;;;;;4905189;29;20036;-82
2024/02/18 11:41:30;;;;;;;9.82;5.55;;;;;;;;;;4880075;29;20055;-82
2024/02/18 11:43:57;;;;;;;15.68;5.60;;;;;;;;;;4892412;29;20658;-81
2024/02/18 11:46:27;;;;;;;11.45;5.53;;;;;;;;;;4882269;29;20132;-81
2024/02/18 11:48:57;;;;;;;14.30;7.25;;;;;;;;;;4885653;29;20481;-82
2024/02/18 11:51:25;;;;;;;8.15;5.53;;;;;;;;;;4906570;29;20028;-81
2024/02/18 11:53:51;;;;;;;8.82;5.35;;;;;;;;;;4921181;29;20043;-82
2024/02/18 11:56:18;;;;;;;10.13;5.00;;;;;;;;;;4897810;29;20041;-82
2024/02/18 11:58:46;;;;;;;12.63;5.43;;;;;;;;;;4915157;29;20084;-81
2024/02/18 12:01:15;;;;;;;9.38;5.20;;;;;;;;;;4866779;29;20037;-82
2024/02/18 12:03:45;;;;;;;16.10;5.82;;;;;;;;;;4885831;29;20066;-81
2024/02/18 12:06:10;;;;;;;13.57;6.93;;;;;;;;;;4880837;29;20497;-82
2024/02/18 12:08:36;;;;;;;12.25;5.43;;;;;;;;;;4914966;29;20058;-82
2024/02/18 12:11:03;;;;;;;8.60;4.70;;;;;;;;;;4896866;29;20059;-82
2024/02/18 12:13:31;;;;;;;10.15;5.25;;;;;;;;;;4891997;29;20040;-83
2024/02/18 12:15:57;;;;;;;8.27;4.95;;;;;;;;;;4873860;29;20036;-82
2024/02/18 12:18:24;;;;;;;10.10;4.40;;;;;;;;;;4885176;29;20061;-81
2024/02/18 12:20:54;;;;;;;11.02;5.05;;;;;;;;;;4905989;29;20036;-82
2024/02/18 12:23:21;;;;;;;11.70;5.40;;;;;;;;;;4888573;29;20100;-82
2024/02/18 12:25:47;;;;;;;8.00;4.60;;;;;;;;;;4903741;29;20068;-81
2024/02/18 12:28:14;;;;;;;7.82;4.65;;;;;;;;;;4916578;29;20048;-83
2024/02/18 12:30:47;;;;;;;8.43;4.47;;;;;;;;;;4917303;29;20037;-82
2024/02/18 12:33:14;;;;;;;8.70;4.00;;;;;;;;;;4901439;29;20044;-84
2024/02/18 12:35:40;;;;;;;9.32;4.65;;;;;;;;;;4921345;29;20036;-81
2024/02/18 12:38:07;;;;;;;8.25;4.30;;;;;;;;;;4893633;29;20123;-82
2024/02/18 12:40:58;;;;;;;16.85;4.97;;;;;;;;;;4885042;29;20045;-82
2024/02/18 12:43:26;;;;;;;7.60;3.47;;;;;;;;;;4898862;29;20029;-82
2024/02/18 12:45:52;;;;;;;7.82;3.42;;;;;;;;;;4898059;29;20041;-82
2024/02/18 12:48:19;;;;;;;6.15;3.70;;;;;;;;;;4877930;29;20037;-82
2024/02/18 12:50:56;;;;;;;8.07;2.97;;;;;;;;;;4919411;29;20040;-82
2024/02/18 12:53:23;;;;;;;7.53;3.10;;;;;;;;;;4882127;29;20032;-81
2024/02/18 12:55:49;;;;;;;8.38;3.63;;;;;;;;;;4898071;29;20066;-83
2024/02/18 12:58:15;;;;;;;8.77;3.45;;;;;;;;;;4896963;29;20045;-82
2024/02/18 13:00:41;;;;;;;5.68;3.03;;;;;;;;;;4928571;29;20044;-82
2024/02/18 13:03:11;;;;;;;4.22;2.30;;;;;;;;;;4900414;29;20033;-82
2024/02/18 13:05:37;;;;;;;6.88;2.45;;;;;;;;;;4913138;29;20049;-83
2024/02/18 13:08:05;;;;;;;6.90;2.60;;;;;;;;;;4908887;29;20029;-82
2024/02/18 13:10:32;;;;;;;8.80;2.97;;;;;;;;;;4907702;29;20045;-83
2024/02/18 13:12:58;;;;;;;5.35;2.53;;;;;;;;;;4889835;29;20041;-83
2024/02/18 13:15:24;;;;;;;5.80;2.35;;;;;;;;;;4899022;29;20067;-82
2024/02/18 13:17:51;;;;;;;5.57;2.05;;;;;;;;;;4918565;29;20036;-83
2024/02/18 13:20:17;;;;;;;5.78;2.15;;;;;;;;;;4911529;29;20068;-83
2024/02/18 13:22:49;;;;;;;5.45;2.17;;;;;;;;;;4914775;29;20069;-83
2024/02/18 13:25:16;;;;;;;13.15;2.47;;;;;;;;;;4897954;29;20039;-83
2024/02/18 13:27:42;;;;;;;4.45;2.17;;;;;;;;;;4905011;29;20032;-82
2024/02/18 13:30:08;;;;;;;5.85;2.67;;;;;;;;;;4913666;29;20036;-83
2024/02/18 13:32:36;;;;;;;6.95;3.28;;;;;;;;;;4887431;29;20087;-82
2024/02/18 13:35:02;;;;;;;6.90;2.30;;;;;;;;;;4915400;29;20083;-82
2024/02/18 13:37:29;;;;;;;4.20;2.00;;;;;;;;;;4904716;29;20040;-81
2024/02/18 13:39:55;;;;;;;5.10;2.00;;;;;;;;;;4916713;29;20481;-81
2024/02/18 13:42:21;;;;;;;4.03;1.77;;;;;;;;;;4897798;29;20091;-81
2024/02/18 13:44:46;;;;;;;5.95;2.30;;;;;;;;;;4887860;29;20096;-82
2024/02/18 13:51:29;;;;;;;6.07;1.58;;;;;;;;;;4862275;29;20454;-81
2024/02/18 13:53:55;;;;;;;3.88;1.55;;;;;;;;;;4903384;29;20048;-83
2024/02/18 13:56:21;;;;;;;4.90;1.95;;;;;;;;;;4893794;29;20041;-81
2024/02/18 14:02:03;;;;;;;4.55;1.98;;;;;;;;;;4918323;29;20029;-82
2024/02/18 14:04:30;;;;;;;4.97;2.63;;;;;;;;;;4915512;29;20024;-82
2024/02/18 14:06:56;;;;;;;5.40;2.00;;;;;;;;;;4902319;29;20036;-82
2024/02/18 14:09:22;;;;;;;4.38;2.17;;;;;;;;;;4900322;29;20043;-82
2024/02/18 14:11:54;;;;;;;4.65;1.63;;;;;;;;;;4899350;29;20048;-82
2024/02/18 14:14:23;;;;;;;3.85;2.00;;;;;;;;;;4915314;29;20044;-81
2024/02/18 14:16:51;;;;;;;8.98;1.92;;;;;;;;;;4916907;29;20043;-82
2024/02/18 14:19:42;;;;;;;3.80;1.70;;;;;;;;;;4886829;29;20036;-82
2024/02/18 14:22:08;;;;;;;4.25;1.83;;;;;;;;;;4897813;29;20039;-82
2024/02/18 14:24:35;;;;;;;4.28;1.88;;;;;;;;;;4895822;29;20028;-81
2024/02/18 14:27:00;;;;;;;7.53;1.90;;;;;;;;;;4893070;29;20041;-81
2024/02/18 14:29:27;;;;;;;4.53;2.10;;;;;;;;;;4893340;29;20033;-82
2024/02/18 14:31:54;;;;;;;5.30;1.98;;;;;;;;;;4891536;29;20093;-80
2024/02/18 14:34:19;;;;;;;5.53;2.05;;;;;;;;;;4878763;29;20033;-82
2024/02/18 14:36:50;;;;;;;4.03;1.70;;;;;;;;;;4892529;29;20021;-82
2024/02/18 14:39:16;;;;;;;5.20;1.70;;;;;;;;;;4899879;29;20077;-82